Terminal Aerodrome Forecast
Issued by NWS Charleston, WV

Current Version | Previous Version | Graphics & Text | Print | Product List | Glossary On
Versions: 1 2 3 4 5 6 7 8 9 10 11 12 13 14 15 16 17 18 19 20 21 22 23 24
000
FTUS41 KRLX 260500
TAFEKN
TAF
KEKN 260520Z 2606/2706 00000KT 6SM BR SKC
     FM260700 00000KT 2SM BR SKC
     FM260900 00000KT 1/4SM FG VV001
     FM261300 00000KT 4SM BR SCT001
     FM261400 00000KT P6SM SKC
     FM261800 00000KT P6SM FEW050=

USA.gov is the U.S. government's official web portal to all federal, state and local government web resources and services.